sensor_id;sensor_type;location;lat;lon;timestamp;P1;durP1;ratioP1;P2;durP2;ratioP2
15946;SDS011;8072;52.554;7.966;2023-06-14T00:00:52;5.47;;;2.13;;
15946;SDS011;8072;52.554;7.966;2023-06-14T00:03:18;6.47;;;1.98;;
15946;SDS011;8072;52.554;7.966;2023-06-14T00:05:47;3.25;;;2.15;;
15946;SDS011;8072;52.554;7.966;2023-06-14T00:08:13;2.25;;;1.98;;
15946;SDS011;8072;52.554;7.966;2023-06-14T00:10:40;3.25;;;2.13;;
15946;SDS011;8072;52.554;7.966;2023-06-14T00:13:10;3.47;;;2.45;;
15946;SDS011;8072;52.554;7.966;2023-06-14T00:15:36;3.25;;;1.90;;
15946;SDS011;8072;52.554;7.966;2023-06-14T00:18:02;4.65;;;2.33;;
15946;SDS011;8072;52.554;7.966;2023-06-14T00:20:30;2.05;;;1.85;;
15946;SDS011;8072;52.554;7.966;2023-06-14T00:23:00;4.60;;;2.10;;
15946;SDS011;8072;52.554;7.966;2023-06-14T00:25:27;4.15;;;2.15;;
15946;SDS011;8072;52.554;7.966;2023-06-14T00:27:53;2.15;;;1.75;;
15946;SDS011;8072;52.554;7.966;2023-06-14T00:30:20;5.68;;;2.25;;
15946;SDS011;8072;52.554;7.966;2023-06-14T00:32:46;5.18;;;2.10;;
15946;SDS011;8072;52.554;7.966;2023-06-14T00:35:12;3.15;;;2.17;;
15946;SDS011;8072;52.554;7.966;2023-06-14T00:37:39;2.42;;;1.92;;
15946;SDS011;8072;52.554;7.966;2023-06-14T00:40:05;4.45;;;2.00;;
15946;SDS011;8072;52.554;7.966;2023-06-14T00:42:32;3.03;;;2.10;;
15946;SDS011;8072;52.554;7.966;2023-06-14T00:44:58;3.58;;;2.00;;
15946;SDS011;8072;52.554;7.966;2023-06-14T00:47:24;4.00;;;1.90;;
15946;SDS011;8072;52.554;7.966;2023-06-14T00:49:50;3.63;;;1.80;;
15946;SDS011;8072;52.554;7.966;2023-06-14T00:52:17;2.22;;;1.77;;
15946;SDS011;8072;52.554;7.966;2023-06-14T00:54:43;3.50;;;1.92;;
15946;SDS011;8072;52.554;7.966;2023-06-14T00:57:10;4.90;;;2.10;;
15946;SDS011;8072;52.554;7.966;2023-06-14T00:59:43;2.80;;;1.65;;
15946;SDS011;8072;52.554;7.966;2023-06-14T01:02:13;2.95;;;1.83;;
15946;SDS011;8072;52.554;7.966;2023-06-14T01:04:43;5.82;;;2.17;;
15946;SDS011;8072;52.554;7.966;2023-06-14T01:07:33;4.43;;;1.88;;
15946;SDS011;8072;52.554;7.966;2023-06-14T01:15:30;5.50;;;2.00;;
15946;SDS011;8072;52.554;7.966;2023-06-14T01:17:57;2.10;;;1.90;;
15946;SDS011;8072;52.554;7.966;2023-06-14T01:20:29;4.32;;;1.90;;
15946;SDS011;8072;52.554;7.966;2023-06-14T01:22:57;3.08;;;1.80;;
15946;SDS011;8072;52.554;7.966;2023-06-14T01:25:24;5.15;;;2.00;;
15946;SDS011;8072;52.554;7.966;2023-06-14T01:27:51;3.58;;;1.90;;
15946;SDS011;8072;52.554;7.966;2023-06-14T01:30:20;4.47;;;2.22;;
15946;SDS011;8072;52.554;7.966;2023-06-14T01:32:47;6.28;;;1.90;;
15946;SDS011;8072;52.554;7.966;2023-06-14T01:35:16;2.42;;;1.90;;
15946;SDS011;8072;52.554;7.966;2023-06-14T01:37:42;3.65;;;1.75;;
15946;SDS011;8072;52.554;7.966;2023-06-14T01:40:09;4.25;;;2.10;;
15946;SDS011;8072;52.554;7.966;2023-06-14T01:42:37;2.17;;;1.67;;
15946;SDS011;8072;52.554;7.966;2023-06-14T01:45:04;3.45;;;1.83;;
15946;SDS011;8072;52.554;7.966;2023-06-14T01:47:31;2.92;;;1.90;;
15946;SDS011;8072;52.554;7.966;2023-06-14T01:50:00;2.65;;;1.80;;
15946;SDS011;8072;52.554;7.966;2023-06-14T01:52:26;3.10;;;2.03;;
15946;SDS011;8072;52.554;7.966;2023-06-14T01:54:52;3.22;;;1.98;;
15946;SDS011;8072;52.554;7.966;2023-06-14T01:57:18;3.90;;;2.28;;
15946;SDS011;8072;52.554;7.966;2023-06-14T01:59:45;3.17;;;1.90;;
15946;SDS011;8072;52.554;7.966;2023-06-14T02:02:13;2.73;;;2.00;;
15946;SDS011;8072;52.554;7.966;2023-06-14T02:04:40;2.45;;;1.73;;
15946;SDS011;8072;52.554;7.966;2023-06-14T02:07:06;5.00;;;2.10;;
15946;SDS011;8072;52.554;7.966;2023-06-14T02:09:33;3.90;;;2.13;;
15946;SDS011;8072;52.554;7.966;2023-06-14T02:12:00;3.47;;;2.23;;
15946;SDS011;8072;52.554;7.966;2023-06-14T02:14:27;5.87;;;2.13;;
15946;SDS011;8072;52.554;7.966;2023-06-14T02:16:53;2.30;;;1.90;;
15946;SDS011;8072;52.554;7.966;2023-06-14T02:19:19;5.63;;;2.20;;
15946;SDS011;8072;52.554;7.966;2023-06-14T02:21:45;2.93;;;2.40;;
15946;SDS011;8072;52.554;7.966;2023-06-14T02:24:12;4.40;;;2.10;;
15946;SDS011;8072;52.554;7.966;2023-06-14T02:26:38;5.33;;;1.90;;
15946;SDS011;8072;52.554;7.966;2023-06-14T02:29:04;7.07;;;2.23;;
15946;SDS011;8072;52.554;7.966;2023-06-14T02:31:31;7.00;;;2.43;;
15946;SDS011;8072;52.554;7.966;2023-06-14T02:33:58;3.97;;;2.40;;
15946;SDS011;8072;52.554;7.966;2023-06-14T02:36:25;3.50;;;2.30;;
15946;SDS011;8072;52.554;7.966;2023-06-14T02:38:51;3.73;;;2.20;;
15946;SDS011;8072;52.554;7.966;2023-06-14T02:41:20;5.23;;;2.30;;
15946;SDS011;8072;52.554;7.966;2023-06-14T02:43:46;4.83;;;2.60;;
15946;SDS011;8072;52.554;7.966;2023-06-14T02:46:11;3.37;;;2.73;;
15946;SDS011;8072;52.554;7.966;2023-06-14T02:48:37;3.63;;;2.43;;
15946;SDS011;8072;52.554;7.966;2023-06-14T02:51:03;3.20;;;2.43;;
15946;SDS011;8072;52.554;7.966;2023-06-14T02:53:29;4.70;;;2.70;;
15946;SDS011;8072;52.554;7.966;2023-06-14T02:55:55;3.43;;;2.33;;
15946;SDS011;8072;52.554;7.966;2023-06-14T02:58:21;2.73;;;2.43;;
15946;SDS011;8072;52.554;7.966;2023-06-14T03:00:50;5.03;;;2.50;;
15946;SDS011;8072;52.554;7.966;2023-06-14T03:03:17;4.13;;;2.30;;
15946;SDS011;8072;52.554;7.966;2023-06-14T03:05:47;3.60;;;2.73;;
15946;SDS011;8072;52.554;7.966;2023-06-14T03:08:15;4.40;;;3.00;;
15946;SDS011;8072;52.554;7.966;2023-06-14T03:10:45;3.53;;;2.27;;
15946;SDS011;8072;52.554;7.966;2023-06-14T03:13:15;3.37;;;2.83;;
15946;SDS011;8072;52.554;7.966;2023-06-14T03:15:44;6.63;;;2.80;;
15946;SDS011;8072;52.554;7.966;2023-06-14T03:18:10;4.67;;;2.83;;
15946;SDS011;8072;52.554;7.966;2023-06-14T03:20:39;9.00;;;3.00;;
15946;SDS011;8072;52.554;7.966;2023-06-14T03:23:06;3.77;;;2.90;;
15946;SDS011;8072;52.554;7.966;2023-06-14T03:25:32;3.67;;;2.80;;
15946;SDS011;8072;52.554;7.966;2023-06-14T03:28:00;4.33;;;2.97;;
15946;SDS011;8072;52.554;7.966;2023-06-14T03:30:27;4.80;;;2.50;;
15946;SDS011;8072;52.554;7.966;2023-06-14T03:32:53;3.53;;;2.80;;
15946;SDS011;8072;52.554;7.966;2023-06-14T03:35:22;5.00;;;3.07;;
15946;SDS011;8072;52.554;7.966;2023-06-14T03:37:48;4.57;;;3.30;;
15946;SDS011;8072;52.554;7.966;2023-06-14T03:40:16;5.03;;;3.30;;
15946;SDS011;8072;52.554;7.966;2023-06-14T03:42:52;4.33;;;2.97;;
15946;SDS011;8072;52.554;7.966;2023-06-14T03:45:19;6.17;;;2.90;;
15946;SDS011;8072;52.554;7.966;2023-06-14T03:47:45;5.67;;;3.00;;
15946;SDS011;8072;52.554;7.966;2023-06-14T03:50:10;5.43;;;3.17;;
15946;SDS011;8072;52.554;7.966;2023-06-14T03:52:36;3.13;;;2.60;;
15946;SDS011;8072;52.554;7.966;2023-06-14T03:55:02;3.60;;;2.80;;
15946;SDS011;8072;52.554;7.966;2023-06-14T03:57:29;6.63;;;3.10;;
15946;SDS011;8072;52.554;7.966;2023-06-14T03:59:55;5.13;;;3.07;;
15946;SDS011;8072;52.554;7.966;2023-06-14T04:02:21;4.87;;;2.87;;
15946;SDS011;8072;52.554;7.966;2023-06-14T04:04:47;7.37;;;3.20;;
15946;SDS011;8072;52.554;7.966;2023-06-14T04:07:16;6.00;;;2.83;;
15946;SDS011;8072;52.554;7.966;2023-06-14T04:09:45;6.40;;;3.07;;
15946;SDS011;8072;52.554;7.966;2023-06-14T04:12:11;4.07;;;2.63;;
15946;SDS011;8072;52.554;7.966;2023-06-14T04:14:38;3.80;;;2.90;;
15946;SDS011;8072;52.554;7.966;2023-06-14T04:17:06;4.30;;;2.97;;
15946;SDS011;8072;52.554;7.966;2023-06-14T04:19:32;4.17;;;3.57;;
15946;SDS011;8072;52.554;7.966;2023-06-14T04:21:58;6.23;;;3.60;;
15946;SDS011;8072;52.554;7.966;2023-06-14T04:24:26;5.03;;;2.97;;
15946;SDS011;8072;52.554;7.966;2023-06-14T04:26:57;5.67;;;3.23;;
15946;SDS011;8072;52.554;7.966;2023-06-14T04:29:28;7.37;;;3.80;;
15946;SDS011;8072;52.554;7.966;2023-06-14T04:31:54;6.93;;;3.07;;
15946;SDS011;8072;52.554;7.966;2023-06-14T04:34:25;6.23;;;3.20;;
15946;SDS011;8072;52.554;7.966;2023-06-14T04:36:54;6.20;;;3.97;;
15946;SDS011;8072;52.554;7.966;2023-06-14T04:39:21;7.67;;;3.87;;
15946;SDS011;8072;52.554;7.966;2023-06-14T04:41:48;5.60;;;3.67;;
15946;SDS011;8072;52.554;7.966;2023-06-14T04:44:17;4.60;;;3.63;;
15946;SDS011;8072;52.554;7.966;2023-06-14T04:46:45;6.80;;;3.80;;
15946;SDS011;8072;52.554;7.966;2023-06-14T04:49:14;8.20;;;3.13;;
15946;SDS011;8072;52.554;7.966;2023-06-14T04:51:44;5.53;;;3.40;;
15946;SDS011;8072;52.554;7.966;2023-06-14T04:54:11;4.37;;;3.50;;
15946;SDS011;8072;52.554;7.966;2023-06-14T04:56:42;6.47;;;3.67;;
15946;SDS011;8072;52.554;7.966;2023-06-14T04:59:08;6.67;;;4.13;;
15946;SDS011;8072;52.554;7.966;2023-06-14T05:01:36;5.50;;;3.90;;
15946;SDS011;8072;52.554;7.966;2023-06-14T05:04:02;5.30;;;3.50;;
15946;SDS011;8072;52.554;7.966;2023-06-14T05:06:28;5.27;;;4.20;;
15946;SDS011;8072;52.554;7.966;2023-06-14T05:08:55;7.07;;;3.73;;
15946;SDS011;8072;52.554;7.966;2023-06-14T05:11:21;3.87;;;3.20;;
15946;SDS011;8072;52.554;7.966;2023-06-14T05:13:52;4.97;;;3.27;;
15946;SDS011;8072;52.554;7.966;2023-06-14T05:16:17;6.23;;;3.80;;
15946;SDS011;8072;52.554;7.966;2023-06-14T05:18:44;7.87;;;3.40;;
15946;SDS011;8072;52.554;7.966;2023-06-14T05:21:12;7.37;;;3.63;;
15946;SDS011;8072;52.554;7.966;2023-06-14T05:23:39;4.50;;;3.50;;
15946;SDS011;8072;52.554;7.966;2023-06-14T05:26:05;5.00;;;3.63;;
15946;SDS011;8072;52.554;7.966;2023-06-14T05:28:31;7.17;;;3.70;;
15946;SDS011;8072;52.554;7.966;2023-06-14T05:30:57;7.00;;;3.67;;
15946;SDS011;8072;52.554;7.966;2023-06-14T05:33:23;4.63;;;3.67;;
15946;SDS011;8072;52.554;7.966;2023-06-14T05:35:49;8.47;;;3.67;;
15946;SDS011;8072;52.554;7.966;2023-06-14T05:38:15;6.13;;;3.50;;
15946;SDS011;8072;52.554;7.966;2023-06-14T05:40:40;5.57;;;3.63;;
15946;SDS011;8072;52.554;7.966;2023-06-14T05:43:06;4.97;;;3.27;;
15946;SDS011;8072;52.554;7.966;2023-06-14T05:45:32;4.03;;;3.33;;
15946;SDS011;8072;52.554;7.966;2023-06-14T05:47:59;7.63;;;3.53;;
15946;SDS011;8072;52.554;7.966;2023-06-14T05:50:25;5.70;;;3.28;;
15946;SDS011;8072;52.554;7.966;2023-06-14T05:52:50;5.93;;;3.88;;
15946;SDS011;8072;52.554;7.966;2023-06-14T05:55:16;5.57;;;3.33;;
15946;SDS011;8072;52.554;7.966;2023-06-14T05:57:42;4.20;;;3.20;;
15946;SDS011;8072;52.554;7.966;2023-06-14T06:00:08;5.93;;;3.27;;
15946;SDS011;8072;52.554;7.966;2023-06-14T06:02:55;6.50;;;3.20;;
15946;SDS011;8072;52.554;7.966;2023-06-14T06:05:23;4.60;;;3.20;;
15946;SDS011;8072;52.554;7.966;2023-06-14T06:07:50;6.00;;;3.03;;
15946;SDS011;8072;52.554;7.966;2023-06-14T06:10:16;7.07;;;3.20;;
15946;SDS011;8072;52.554;7.966;2023-06-14T06:12:42;9.20;;;3.10;;
15946;SDS011;8072;52.554;7.966;2023-06-14T06:15:08;5.68;;;2.58;;
15946;SDS011;8072;52.554;7.966;2023-06-14T06:17:37;4.07;;;2.63;;
15946;SDS011;8072;52.554;7.966;2023-06-14T06:20:03;8.10;;;2.80;;
15946;SDS011;8072;52.554;7.966;2023-06-14T06:22:31;3.78;;;2.90;;
15946;SDS011;8072;52.554;7.966;2023-06-14T06:24:57;7.47;;;2.63;;
15946;SDS011;8072;52.554;7.966;2023-06-14T06:27:22;3.42;;;2.50;;
15946;SDS011;8072;52.554;7.966;2023-06-14T06:29:48;4.65;;;2.50;;
15946;SDS011;8072;52.554;7.966;2023-06-14T06:32:14;3.97;;;2.83;;
15946;SDS011;8072;52.554;7.966;2023-06-14T06:34:40;3.95;;;3.40;;
15946;SDS011;8072;52.554;7.966;2023-06-14T06:37:06;7.13;;;2.30;;
15946;SDS011;8072;52.554;7.966;2023-06-14T06:39:32;6.68;;;2.42;;
15946;SDS011;8072;52.554;7.966;2023-06-14T06:41:58;5.13;;;2.55;;
15946;SDS011;8072;52.554;7.966;2023-06-14T06:44:24;3.88;;;2.47;;
15946;SDS011;8072;52.554;7.966;2023-06-14T06:46:50;7.20;;;2.33;;
15946;SDS011;8072;52.554;7.966;2023-06-14T06:49:15;4.07;;;2.65;;
15946;SDS011;8072;52.554;7.966;2023-06-14T06:51:41;4.15;;;2.95;;
15946;SDS011;8072;52.554;7.966;2023-06-14T06:54:10;3.88;;;2.60;;
15946;SDS011;8072;52.554;7.966;2023-06-14T06:56:36;2.85;;;2.42;;
15946;SDS011;8072;52.554;7.966;2023-06-14T06:59:05;3.75;;;2.63;;
15946;SDS011;8072;52.554;7.966;2023-06-14T07:01:31;3.40;;;2.47;;
15946;SDS011;8072;52.554;7.966;2023-06-14T07:03:58;3.08;;;2.25;;
15946;SDS011;8072;52.554;7.966;2023-06-14T07:06:24;5.20;;;2.67;;
15946;SDS011;8072;52.554;7.966;2023-06-14T07:08:52;4.38;;;2.42;;
15946;SDS011;8072;52.554;7.966;2023-06-14T07:11:19;2.92;;;2.50;;
15946;SDS011;8072;52.554;7.966;2023-06-14T07:13:45;4.70;;;2.65;;
15946;SDS011;8072;52.554;7.966;2023-06-14T07:16:11;2.60;;;2.22;;
15946;SDS011;8072;52.554;7.966;2023-06-14T07:18:36;6.10;;;2.20;;
15946;SDS011;8072;52.554;7.966;2023-06-14T07:21:02;3.35;;;2.20;;
15946;SDS011;8072;52.554;7.966;2023-06-14T07:23:28;3.35;;;2.45;;
15946;SDS011;8072;52.554;7.966;2023-06-14T07:25:54;3.22;;;2.20;;
15946;SDS011;8072;52.554;7.966;2023-06-14T07:28:20;3.50;;;2.35;;
15946;SDS011;8072;52.554;7.966;2023-06-14T07:30:46;4.70;;;2.25;;
15946;SDS011;8072;52.554;7.966;2023-06-14T07:33:13;4.35;;;2.05;;
15946;SDS011;8072;52.554;7.966;2023-06-14T07:35:39;4.55;;;2.15;;
15946;SDS011;8072;52.554;7.966;2023-06-14T07:38:05;3.95;;;2.70;;
15946;SDS011;8072;52.554;7.966;2023-06-14T07:40:31;5.85;;;2.38;;
15946;SDS011;8072;52.554;7.966;2023-06-14T07:42:57;2.95;;;1.98;;
15946;SDS011;8072;52.554;7.966;2023-06-14T07:45:22;4.18;;;2.10;;
15946;SDS011;8072;52.554;7.966;2023-06-14T07:47:48;2.80;;;2.00;;
15946;SDS011;8072;52.554;7.966;2023-06-14T07:50:15;2.15;;;1.90;;
15946;SDS011;8072;52.554;7.966;2023-06-14T07:52:40;4.68;;;2.25;;
15946;SDS011;8072;52.554;7.966;2023-06-14T07:55:06;3.53;;;2.30;;
15946;SDS011;8072;52.554;7.966;2023-06-14T07:57:32;8.77;;;2.10;;
15946;SDS011;8072;52.554;7.966;2023-06-14T07:59:58;3.80;;;2.05;;
15946;SDS011;8072;52.554;7.966;2023-06-14T08:02:24;3.55;;;1.88;;
15946;SDS011;8072;52.554;7.966;2023-06-14T08:04:49;4.07;;;1.92;;
15946;SDS011;8072;52.554;7.966;2023-06-14T08:07:15;2.67;;;1.90;;
15946;SDS011;8072;52.554;7.966;2023-06-14T08:09:41;4.80;;;2.00;;
15946;SDS011;8072;52.554;7.966;2023-06-14T08:12:07;5.05;;;2.00;;
15946;SDS011;8072;52.554;7.966;2023-06-14T08:14:34;3.47;;;2.00;;
15946;SDS011;8072;52.554;7.966;2023-06-14T08:17:01;3.90;;;2.60;;
15946;SDS011;8072;52.554;7.966;2023-06-14T08:19:27;2.92;;;1.85;;
15946;SDS011;8072;52.554;7.966;2023-06-14T08:21:53;2.85;;;1.92;;
15946;SDS011;8072;52.554;7.966;2023-06-14T08:24:23;2.30;;;1.95;;
15946;SDS011;8072;52.554;7.966;2023-06-14T08:26:54;2.60;;;2.00;;
15946;SDS011;8072;52.554;7.966;2023-06-14T08:29:21;4.72;;;1.70;;
15946;SDS011;8072;52.554;7.966;2023-06-14T08:31:47;6.28;;;1.85;;
15946;SDS011;8072;52.554;7.966;2023-06-14T08:34:13;5.20;;;2.10;;
15946;SDS011;8072;52.554;7.966;2023-06-14T08:36:39;2.33;;;1.77;;
15946;SDS011;8072;52.554;7.966;2023-06-14T08:39:05;3.50;;;1.83;;
15946;SDS011;8072;52.554;7.966;2023-06-14T08:41:31;2.25;;;1.90;;
15946;SDS011;8072;52.554;7.966;2023-06-14T08:43:58;4.65;;;1.95;;
15946;SDS011;8072;52.554;7.966;2023-06-14T08:46:25;2.58;;;2.00;;
15946;SDS011;8072;52.554;7.966;2023-06-14T08:48:52;2.45;;;1.88;;
15946;SDS011;8072;52.554;7.966;2023-06-14T08:51:22;2.72;;;2.00;;
15946;SDS011;8072;52.554;7.966;2023-06-14T08:53:52;2.72;;;2.22;;
15946;SDS011;8072;52.554;7.966;2023-06-14T08:56:26;7.60;;;2.33;;
15946;SDS011;8072;52.554;7.966;2023-06-14T08:58:56;3.50;;;1.73;;
15946;SDS011;8072;52.554;7.966;2023-06-14T09:01:26;2.70;;;1.90;;
15946;SDS011;8072;52.554;7.966;2023-06-14T09:03:52;3.97;;;1.88;;
15946;SDS011;8072;52.554;7.966;2023-06-14T09:06:20;4.10;;;1.75;;
15946;SDS011;8072;52.554;7.966;2023-06-14T09:08:48;2.63;;;1.85;;
15946;SDS011;8072;52.554;7.966;2023-06-14T09:11:16;2.58;;;1.83;;
15946;SDS011;8072;52.554;7.966;2023-06-14T09:13:45;5.45;;;1.70;;
15946;SDS011;8072;52.554;7.966;2023-06-14T09:16:11;2.25;;;1.83;;
15946;SDS011;8072;52.554;7.966;2023-06-14T09:18:39;2.47;;;1.90;;
15946;SDS011;8072;52.554;7.966;2023-06-14T09:21:09;4.88;;;1.90;;
15946;SDS011;8072;52.554;7.966;2023-06-14T09:23:43;2.88;;;1.83;;
15946;SDS011;8072;52.554;7.966;2023-06-14T09:26:17;2.22;;;1.83;;
15946;SDS011;8072;52.554;7.966;2023-06-14T09:28:48;3.50;;;1.65;;
15946;SDS011;8072;52.554;7.966;2023-06-14T09:31:16;3.22;;;1.60;;
15946;SDS011;8072;52.554;7.966;2023-06-14T09:33:47;1.88;;;1.60;;
15946;SDS011;8072;52.554;7.966;2023-06-14T09:36:17;3.17;;;1.88;;
15946;SDS011;8072;52.554;7.966;2023-06-14T09:38:56;6.82;;;2.10;;
15946;SDS011;8072;52.554;7.966;2023-06-14T09:41:39;6.95;;;1.95;;
15946;SDS011;8072;52.554;7.966;2023-06-14T09:44:18;2.72;;;1.67;;
15946;SDS011;8072;52.554;7.966;2023-06-14T09:46:46;2.65;;;1.77;;
15946;SDS011;8072;52.554;7.966;2023-06-14T09:49:13;3.03;;;1.55;;
15946;SDS011;8072;52.554;7.966;2023-06-14T09:51:42;2.13;;;1.55;;
15946;SDS011;8072;52.554;7.966;2023-06-14T09:54:11;2.28;;;1.63;;
15946;SDS011;8072;52.554;7.966;2023-06-14T09:56:42;3.42;;;1.67;;
15946;SDS011;8072;52.554;7.966;2023-06-14T09:59:11;2.15;;;1.90;;
15946;SDS011;8072;52.554;7.966;2023-06-14T10:01:43;3.63;;;1.98;;
15946;SDS011;8072;52.554;7.966;2023-06-14T10:04:09;3.10;;;1.92;;
15946;SDS011;8072;52.554;7.966;2023-06-14T10:06:39;4.05;;;1.85;;
15946;SDS011;8072;52.554;7.966;2023-06-14T10:09:10;3.60;;;1.60;;
15946;SDS011;8072;52.554;7.966;2023-06-14T10:11:37;3.72;;;1.83;;
15946;SDS011;8072;52.554;7.966;2023-06-14T10:14:08;4.00;;;1.58;;
15946;SDS011;8072;52.554;7.966;2023-06-14T10:16:37;3.72;;;1.85;;
15946;SDS011;8072;52.554;7.966;2023-06-14T10:19:13;2.15;;;1.75;;
15946;SDS011;8072;52.554;7.966;2023-06-14T10:21:58;5.90;;;2.10;;
15946;SDS011;8072;52.554;7.966;2023-06-14T10:24:39;3.25;;;1.85;;
15946;SDS011;8072;52.554;7.966;2023-06-14T10:27:08;2.40;;;1.75;;
15946;SDS011;8072;52.554;7.966;2023-06-14T10:32:28;2.88;;;1.80;;
15946;SDS011;8072;52.554;7.966;2023-06-14T10:34:57;2.20;;;1.58;;
15946;SDS011;8072;52.554;7.966;2023-06-14T10:37:25;2.45;;;2.15;;
15946;SDS011;8072;52.554;7.966;2023-06-14T10:39:51;2.20;;;2.00;;
15946;SDS011;8072;52.554;7.966;2023-06-14T10:42:19;1.85;;;1.70;;
15946;SDS011;8072;52.554;7.966;2023-06-14T10:44:55;3.03;;;1.80;;
15946;SDS011;8072;52.554;7.966;2023-06-14T10:49:54;3.22;;;1.90;;
15946;SDS011;8072;52.554;7.966;2023-06-14T10:52:23;3.92;;;1.90;;
15946;SDS011;8072;52.554;7.966;2023-06-14T10:55:35;5.03;;;1.80;;
15946;SDS011;8072;52.554;7.966;2023-06-14T11:00:11;2.95;;;1.50;;
15946;SDS011;8072;52.554;7.966;2023-06-14T11:11:11;2.90;;;1.65;;
15946;SDS011;8072;52.554;7.966;2023-06-14T11:13:39;2.03;;;1.80;;
15946;SDS011;8072;52.554;7.966;2023-06-14T11:16:10;2.42;;;1.70;;
15946;SDS011;8072;52.554;7.966;2023-06-14T11:18:38;2.55;;;1.50;;
15946;SDS011;8072;52.554;7.966;2023-06-14T11:21:04;6.57;;;2.00;;
15946;SDS011;8072;52.554;7.966;2023-06-14T11:23:29;7.10;;;1.67;;
15946;SDS011;8072;52.554;7.966;2023-06-14T11:25:55;4.40;;;1.60;;
15946;SDS011;8072;52.554;7.966;2023-06-14T11:28:21;2.22;;;1.70;;
15946;SDS011;8072;52.554;7.966;2023-06-14T11:30:48;1.88;;;1.60;;
15946;SDS011;8072;52.554;7.966;2023-06-14T11:33:24;2.55;;;1.80;;
15946;SDS011;8072;52.554;7.966;2023-06-14T11:35:50;4.63;;;1.70;;
15946;SDS011;8072;52.554;7.966;2023-06-14T11:38:17;1.73;;;1.45;;
15946;SDS011;8072;52.554;7.966;2023-06-14T11:40:43;2.67;;;1.50;;
15946;SDS011;8072;52.554;7.966;2023-06-14T11:43:09;2.88;;;1.75;;
15946;SDS011;8072;52.554;7.966;2023-06-14T11:45:35;2.65;;;1.70;;
15946;SDS011;8072;52.554;7.966;2023-06-14T11:48:00;2.65;;;1.80;;
15946;SDS011;8072;52.554;7.966;2023-06-14T11:50:26;2.00;;;1.40;;
15946;SDS011;8072;52.554;7.966;2023-06-14T11:52:56;2.00;;;1.60;;
15946;SDS011;8072;52.554;7.966;2023-06-14T11:55:24;2.95;;;1.50;;
15946;SDS011;8072;52.554;7.966;2023-06-14T11:57:51;1.73;;;1.38;;
15946;SDS011;8072;52.554;7.966;2023-06-14T12:00:22;1.60;;;1.40;;
15946;SDS011;8072;52.554;7.966;2023-06-14T12:02:54;2.03;;;1.42;;
15946;SDS011;8072;52.554;7.966;2023-06-14T12:05:24;2.88;;;1.35;;
15946;SDS011;8072;52.554;7.966;2023-06-14T12:07:57;3.45;;;1.35;;
15946;SDS011;8072;52.554;7.966;2023-06-14T12:10:25;4.50;;;1.48;;
15946;SDS011;8072;52.554;7.966;2023-06-14T12:12:51;1.88;;;1.30;;
15946;SDS011;8072;52.554;7.966;2023-06-14T12:15:23;3.00;;;1.75;;
15946;SDS011;8072;52.554;7.966;2023-06-14T12:17:49;1.67;;;1.42;;
15946;SDS011;8072;52.554;7.966;2023-06-14T12:20:15;1.85;;;1.38;;
15946;SDS011;8072;52.554;7.966;2023-06-14T12:22:51;1.58;;;1.40;;
15946;SDS011;8072;52.554;7.966;2023-06-14T12:27:56;1.75;;;1.40;;
15946;SDS011;8072;52.554;7.966;2023-06-14T12:30:22;2.35;;;1.60;;
15946;SDS011;8072;52.554;7.966;2023-06-14T12:32:48;2.15;;;1.25;;
15946;SDS011;8072;52.554;7.966;2023-06-14T12:35:16;3.83;;;1.92;;
15946;SDS011;8072;52.554;7.966;2023-06-14T12:37:44;5.75;;;1.55;;
15946;SDS011;8072;52.554;7.966;2023-06-14T12:40:11;1.90;;;1.67;;
15946;SDS011;8072;52.554;7.966;2023-06-14T12:42:38;2.10;;;1.70;;
15946;SDS011;8072;52.554;7.966;2023-06-14T12:45:05;2.33;;;1.90;;
15946;SDS011;8072;52.554;7.966;2023-06-14T12:47:31;3.50;;;1.80;;
15946;SDS011;8072;52.554;7.966;2023-06-14T12:49:57;2.33;;;1.90;;
15946;SDS011;8072;52.554;7.966;2023-06-14T12:52:23;2.22;;;2.00;;
15946;SDS011;8072;52.554;7.966;2023-06-14T12:54:49;2.33;;;1.90;;
15946;SDS011;8072;52.554;7.966;2023-06-14T12:57:15;2.13;;;1.60;;
15946;SDS011;8072;52.554;7.966;2023-06-14T12:59:41;4.07;;;2.00;;
15946;SDS011;8072;52.554;7.966;2023-06-14T13:02:13;3.03;;;2.00;;
15946;SDS011;8072;52.554;7.966;2023-06-14T13:04:41;2.58;;;1.80;;
15946;SDS011;8072;52.554;7.966;2023-06-14T13:07:07;2.05;;;1.60;;
15946;SDS011;8072;52.554;7.966;2023-06-14T13:09:33;5.63;;;2.45;;
15946;SDS011;8072;52.554;7.966;2023-06-14T13:11:59;5.28;;;2.10;;
15946;SDS011;8072;52.554;7.966;2023-06-14T13:14:24;3.17;;;1.85;;
15946;SDS011;8072;52.554;7.966;2023-06-14T13:16:51;2.00;;;1.70;;
15946;SDS011;8072;52.554;7.966;2023-06-14T13:19:16;3.50;;;2.08;;
15946;SDS011;8072;52.554;7.966;2023-06-14T13:21:42;2.55;;;2.03;;
15946;SDS011;8072;52.554;7.966;2023-06-14T13:24:09;3.35;;;1.90;;
15946;SDS011;8072;52.554;7.966;2023-06-14T13:26:35;2.42;;;1.80;;
15946;SDS011;8072;52.554;7.966;2023-06-14T13:29:01;2.45;;;1.70;;
15946;SDS011;8072;52.554;7.966;2023-06-14T13:31:27;3.42;;;1.90;;
15946;SDS011;8072;52.554;7.966;2023-06-14T13:33:55;6.43;;;1.98;;
15946;SDS011;8072;52.554;7.966;2023-06-14T13:36:21;3.70;;;2.15;;
15946;SDS011;8072;52.554;7.966;2023-06-14T13:38:47;2.80;;;1.55;;
15946;SDS011;8072;52.554;7.966;2023-06-14T13:41:13;3.50;;;1.90;;
15946;SDS011;8072;52.554;7.966;2023-06-14T13:43:38;3.03;;;2.10;;
15946;SDS011;8072;52.554;7.966;2023-06-14T13:46:05;3.05;;;2.17;;
15946;SDS011;8072;52.554;7.966;2023-06-14T13:48:31;4.53;;;2.13;;
15946;SDS011;8072;52.554;7.966;2023-06-14T13:50:59;4.07;;;1.90;;
15946;SDS011;8072;52.554;7.966;2023-06-14T13:53:25;2.47;;;2.03;;
15946;SDS011;8072;52.554;7.966;2023-06-14T13:55:51;2.13;;;1.92;;
15946;SDS011;8072;52.554;7.966;2023-06-14T13:58:18;3.85;;;2.70;;
15946;SDS011;8072;52.554;7.966;2023-06-14T14:00:44;2.45;;;2.20;;
15946;SDS011;8072;52.554;7.966;2023-06-14T14:03:10;2.85;;;1.88;;
15946;SDS011;8072;52.554;7.966;2023-06-14T14:05:36;2.83;;;2.00;;
15946;SDS011;8072;52.554;7.966;2023-06-14T14:08:02;2.03;;;1.90;;
15946;SDS011;8072;52.554;7.966;2023-06-14T14:10:29;5.20;;;1.90;;
15946;SDS011;8072;52.554;7.966;2023-06-14T14:12:55;3.97;;;2.00;;
15946;SDS011;8072;52.554;7.966;2023-06-14T14:15:21;4.13;;;2.63;;
15946;SDS011;8072;52.554;7.966;2023-06-14T14:17:47;4.70;;;2.15;;
15946;SDS011;8072;52.554;7.966;2023-06-14T14:20:13;3.20;;;1.98;;
15946;SDS011;8072;52.554;7.966;2023-06-14T14:22:43;3.33;;;2.05;;
15946;SDS011;8072;52.554;7.966;2023-06-14T14:25:09;3.42;;;2.15;;
15946;SDS011;8072;52.554;7.966;2023-06-14T14:27:38;5.82;;;2.72;;
15946;SDS011;8072;52.554;7.966;2023-06-14T14:30:04;2.55;;;2.22;;
15946;SDS011;8072;52.554;7.966;2023-06-14T14:32:31;3.67;;;2.03;;
15946;SDS011;8072;52.554;7.966;2023-06-14T14:34:56;5.80;;;2.35;;
15946;SDS011;8072;52.554;7.966;2023-06-14T14:37:22;6.60;;;2.40;;
15946;SDS011;8072;52.554;7.966;2023-06-14T14:39:48;2.45;;;2.00;;
15946;SDS011;8072;52.554;7.966;2023-06-14T14:42:13;3.85;;;2.45;;
15946;SDS011;8072;52.554;7.966;2023-06-14T14:44:39;3.28;;;2.17;;
15946;SDS011;8072;52.554;7.966;2023-06-14T14:47:05;6.68;;;2.33;;
15946;SDS011;8072;52.554;7.966;2023-06-14T14:49:31;3.47;;;2.47;;
15946;SDS011;8072;52.554;7.966;2023-06-14T14:51:57;5.60;;;2.67;;
15946;SDS011;8072;52.554;7.966;2023-06-14T14:54:23;3.13;;;2.22;;
15946;SDS011;8072;52.554;7.966;2023-06-14T14:56:50;4.15;;;2.47;;
15946;SDS011;8072;52.554;7.966;2023-06-14T14:59:16;2.67;;;2.47;;
15946;SDS011;8072;52.554;7.966;2023-06-14T15:01:43;4.15;;;2.33;;
15946;SDS011;8072;52.554;7.966;2023-06-14T15:04:10;4.20;;;2.55;;
15946;SDS011;8072;52.554;7.966;2023-06-14T15:06:36;4.15;;;2.35;;
15946;SDS011;8072;52.554;7.966;2023-06-14T15:09:04;5.93;;;2.70;;
15946;SDS011;8072;52.554;7.966;2023-06-14T15:11:31;6.00;;;2.40;;
15946;SDS011;8072;52.554;7.966;2023-06-14T15:13:56;4.22;;;2.40;;
15946;SDS011;8072;52.554;7.966;2023-06-14T15:16:22;2.67;;;2.15;;
15946;SDS011;8072;52.554;7.966;2023-06-14T15:18:48;3.05;;;2.38;;
15946;SDS011;8072;52.554;7.966;2023-06-14T15:21:14;4.95;;;2.33;;
15946;SDS011;8072;52.554;7.966;2023-06-14T15:23:40;3.50;;;2.10;;
15946;SDS011;8072;52.554;7.966;2023-06-14T15:26:06;2.97;;;2.20;;